• Join FlightAware (Why Join?)
  • Login
  • US Flag 
Gobble Gobble! 
07:50PM EST


 

Airport Tracker/Info


-or-


 

Live Flight TrackerFlight Track Log ✈ N12JD ✈ 14-Jul-2013 ✈ KJAC - KUES

Flight Track Log - Related Links

Times and Time Zones

All times are in EDT time to prevent confusion due to time zone crossing. See the N12JD flight status page for this flight to view local times or setup timezone preferences in your user account.

Time Position Orientation Groundspeed Altitude Reporting Facility
EDT Latitude Longitude Course Direction KTS MPH feet Rate Location/Type
11:55AM 43.7708 -110.6111 100° East 173 199 11,100  Level Salt Lake Center
11:56AM 43.8172 -110.5767 28° Northeast 185 213 12,000 960 Climbing Salt Lake Center
11:57AM 43.8594 -110.5286 39° Northeast 203 234 13,100 1,080 Climbing Salt Lake Center
11:58AM 43.8633 -110.4367 87° East 199 229 14,300 960 Climbing Salt Lake Center
11:59AM 43.8653 -110.3564 88° East 207 238 15,200 840 Climbing Salt Lake Center
12:01PM 43.8207 -110.3490 100° East  Level FlightAware Approximate
12:01PM 43.8681 -110.2744 87° East 210 242 16,100  Level Salt Lake Center
12:02PM 43.8703 -110.1886 88° East 221 254 16,900 720 Climbing Salt Lake Center
12:03PM 43.8731 -110.1014 87° East 225 259 17,700 600 Climbing Salt Lake Center
12:04PM 43.8758 -110.0133 87° East 228 262 18,200 600 Climbing Salt Lake Center
12:05PM 43.8781 -109.9258 88° East 228 262 19,000 720 Climbing Salt Lake Center
12:06PM 43.8822 -109.8197 87° East 229 264 19,700 660 Climbing Salt Lake Center
12:07PM 43.8833 -109.7317 89° East 231 266 20,400 480 Climbing Salt Lake Center
12:08PM 43.8856 -109.6453 88° East 234 269 20,800 480 Climbing Salt Lake Center
12:09PM 43.8925 -109.5406 85° East 242 278 21,400 480 Climbing Salt Lake Center
12:10PM 43.8964 -109.4417 87° East 244 281 21,900 480 Climbing Salt Lake Center
12:11PM 43.9022 -109.3492 85° East 243 280 22,400 360 Climbing Salt Lake Center
12:12PM 43.9064 -109.2528 87° East 249 287 22,700 240 Climbing Salt Lake Center
12:13PM 43.9128 -109.1472 85° East 250 288 23,000 120 Climbing Salt Lake Center
12:14PM 43.9167 -109.0503 87° East 260 299 23,000  Level Salt Lake Center
12:15PM 43.9231 -108.9294 86° East 276 318 23,000  Level Salt Lake Center
12:16PM 43.9272 -108.8233 87° East 278 320 23,000  Level Salt Lake Center
12:17PM 43.9322 -108.7175 86° East 277 319 23,000  Level Salt Lake Center
12:18PM 43.9378 -108.6086 86° East 282 325 23,000  Level Salt Lake Center
12:19PM 43.9422 -108.5011 87° East 282 325 23,000  Level Salt Lake Center
12:20PM 43.9469 -108.3922 87° East 283 326 23,000  Level Salt Lake Center
12:21PM 43.9533 -108.2631 86° East 281 323 23,000  Level Salt Lake Center
12:22PM 43.9572 -108.1525 87° East 286 329 23,000  Level Salt Lake Center
12:23PM 43.9622 -108.0439 86° East 285 328 23,000  Level Salt Lake Center
12:24PM 43.9661 -107.9333 87° East 286 329 23,000  Level Salt Lake Center
12:25PM 43.9711 -107.8264 86° East 280 322 23,000  Level Salt Lake Center
12:26PM 43.9758 -107.6942 87° East 286 329 23,000  Level Salt Lake Center
12:27PM 43.9783 -107.5881 88° East 281 323 23,000  Level Salt Lake Center
12:28PM 43.9822 -107.4803 87° East 280 322 23,000  Level Salt Lake Center
12:29PM 43.9856 -107.3725 88° East 282 325 23,000  Level Salt Lake Center
12:30PM 43.9894 -107.2644 87° East 281 323 23,000  Level Salt Lake Center
12:32PM 43.9953 -107.1544 86° East 285 328 23,000  Level Salt Lake Center
12:32PM 43.9978 -107.0689 88° East 278 320 23,000  Level Denver Center
12:34PM 44.0017 -106.9406 88° East 277 319 23,000  Level Denver Center
12:35PM 44.0064 -106.8111 87° East 282 325 23,000  Level Salt Lake Center
12:36PM 44.0092 -106.7042 88° East 280 322 23,000  Level Salt Lake Center
12:37PM 44.0125 -106.5964 88° East 280 322 23,000  Level Salt Lake Center
12:38PM 44.0153 -106.4872 88° East 283 326 23,000  Level Salt Lake Center
12:39PM 44.0192 -106.3556 88° East 286 329 23,000  Level Salt Lake Center
12:40PM 44.0153 -106.2472 93° East 285 328 23,000  Level Salt Lake Center
12:41PM 44.0058 -106.1458 97° East 283 326 23,000  Level Salt Lake Center
12:42PM 43.9933 -106.0261 98° East 281 323 23,000  Level Salt Lake Center
12:43PM 43.9828 -105.9211 98° East 284 327 23,000  Level Salt Lake Center
12:44PM 43.9706 -105.8031 98° East 280 322 23,000  Level Salt Lake Center
12:45PM 43.9619 -105.6978 96° East 283 326 23,000  Level Salt Lake Center
12:46PM 43.9506 -105.5800 98° East 278 320 23,000  Level Salt Lake Center
12:47PM 43.9414 -105.4775 97° East 279 321 23,000  Level Salt Lake Center
12:48PM 43.9292 -105.3592 98° East 280 322 23,000  Level Denver Center
12:49PM 43.9194 -105.2431 97° East 274 315 23,000  Level Denver Center
12:50PM 43.9103 -105.1411 97° East 277 319 23,000  Level Denver Center
12:51PM 43.8989 -105.0253 98° East 274 315 23,000  Level Denver Center
12:52PM 43.8906 -104.9256 97° East 271 312 23,000  Level Denver Center
12:54PM 43.8917 -104.8064 89° East 276 318 23,000  Level Denver Center
12:55PM 43.8958 -104.6878 87° East 277 319 23,000  Level Denver Center
12:56PM 43.8978 -104.5678 89° East 277 319 23,000  Level Denver Center
12:57PM 43.9003 -104.4656 88° East 277 319 23,000  Level Denver Center
12:58PM 43.9022 -104.3486 89° East 276 318 23,000  Level Denver Center
12:59PM 43.9047 -104.2494 88° East 272 313 23,000  Level Denver Center
01:00PM 43.9072 -104.1319 88° East 272 313 23,000  Level Denver Center
01:01PM 43.9075 -104.0272 90° East 279 321 23,000  Level Denver Center
01:02PM 43.9092 -103.9053 89° East 282 325 23,000  Level Denver Center
01:03PM 43.9108 -103.8042 89° East 279 321 23,000  Level Denver Center
01:04PM 43.9128 -103.6681 89° East 277 319 23,000  Level Denver Center
01:05PM 43.9150 -103.5833 88° East 277 319 23,000  Level Denver Center
01:06PM 43.9156 -103.4444 90° East 280 322 23,000  Level Denver Center
01:07PM 43.9161 -103.3436 90° East 277 319 23,000  Level Denver Center
01:08PM 43.9175 -103.2272 89° East 273 314 23,000  Level Denver Center
01:09PM 43.9175 -103.1264 90° East 272 313 23,000  Level Denver Center
01:10PM 43.9203 -103.0111 88° East 270 311 23,000  Level Denver Center
01:12PM 43.9197 -102.8914 90° East 273 314 23,000  Level Denver Center
01:13PM 43.9197 -102.7722 90° East 273 314 23,000  Level Denver Center
01:14PM 43.9197 -102.6658 90° East 275 316 23,000  Level Denver Center
01:15PM 43.9203 -102.5586 90° East 277 319 23,000  Level Denver Center
01:16PM 43.9194 -102.4511 91° East 279 321 23,000  Level Denver Center
01:17PM 43.9186 -102.3431 91° East 280 322 23,000  Level Denver Center
01:18PM 43.9156 -102.2344 92° East 281 323 23,000  Level Denver Center
01:19PM 43.9156 -102.1061 90° East 279 321 23,000  Level Denver Center
01:20PM 43.9158 -102.0008 90° East 276 318 23,000  Level Denver Center
01:21PM 43.9150 -101.8950 91° East 275 316 23,000  Level Denver Center
01:22PM 43.9142 -101.7881 91° East 276 318 23,000  Level Denver Center
01:23PM 43.9133 -101.6828 91° East 275 316 23,000  Level Denver Center
01:24PM 43.9156 -101.5794 88° East 271 312 23,000  Level Denver Center
01:25PM 43.9147 -101.4544 90° East 273 314 23,000  Level Denver Center
01:26PM 43.9136 -101.3711 91° East 274 315 23,000  Level Minneapolis Center
01:27PM 43.9131 -101.2456 90° East 273 314 23,000  Level Minneapolis Center
01:28PM 43.9117 -101.1422 91° East 272 313 23,000  Level Minneapolis Center
01:29PM 43.9097 -101.0392 91° East 270 311 23,000  Level Minneapolis Center
01:30PM 43.9106 -100.9386 89° East 267 307 23,000  Level Minneapolis Center
01:31PM 43.9092 -100.8353 91° East 269 310 23,000  Level Minneapolis Center
01:32PM 43.9081 -100.7331 91° East 266 306 23,000  Level Minneapolis Center
01:33PM 43.9053 -100.6094 92° East 268 308 23,000  Level Minneapolis Center
01:34PM 43.9047 -100.5067 90° East 268 308 23,000  Level Minneapolis Center
01:35PM 43.9019 -100.4008 92° East 272 313 23,000  Level Minneapolis Center
01:36PM 43.9006 -100.2953 91° East 274 315 23,000  Level Minneapolis Center
01:37PM 43.8983 -100.1933 92° East 271 312 23,000  Level Minneapolis Center
01:38PM 43.8964 -100.0872 91° East 273 314 23,000  Level Minneapolis Center
01:40PM 43.8944 -99.9433 91° East 271 312 23,000  Level Minneapolis Center
01:41PM 43.8917 -99.8414 92° East 268 308 23,000  Level Minneapolis Center
01:42PM 43.8892 -99.7389 92° East 267 307 23,000  Level Minneapolis Center
01:43PM 43.8869 -99.6367 92° East 267 307 23,000  Level Minneapolis Center
01:44PM 43.8850 -99.5344 91° East 267 307 23,000  Level Minneapolis Center
01:45PM 43.8819 -99.4317 92° East 268 308 23,000  Level Minneapolis Center
01:46PM 43.8789 -99.3092 92° East 266 306 23,000  Level Minneapolis Center
01:47PM 43.8772 -99.2053 91° East 269 310 23,000  Level Minneapolis Center
01:48PM 43.8742 -99.1025 92° East 268 308 23,000  Level Minneapolis Center
01:49PM 43.8711 -98.9997 92° East 268 308 23,000  Level Minneapolis Center
01:50PM 43.8675 -98.8958 93° East 271 312 23,000  Level Minneapolis Center
01:51PM 43.8642 -98.7733 92° East 267 307 23,000  Level Minneapolis Center
01:52PM 43.8608 -98.6683 92° East 267 307 23,000  Level Minneapolis Center
01:53PM 43.8572 -98.5675 93° East 265 305 23,000  Level Minneapolis Center
01:54PM 43.8539 -98.4686 93° East 260 299 23,000  Level Minneapolis Center
01:55PM 43.8417 -98.3708 100° East 262 302 23,000  Level Minneapolis Center
01:56PM 43.8211 -98.2769 107° East 257 296 23,000  Level Minneapolis Center
01:57PM 43.8000 -98.1828 107° East 257 296 23,000  Level Minneapolis Center
01:58PM 43.7742 -98.0719 108° East 254 292 23,000  Level Minneapolis Center
01:59PM 43.7522 -97.9778 108° East 256 295 23,000  Level Minneapolis Center
02:00PM 43.7314 -97.8844 107° East 256 295 23,000  Level Minneapolis Center
02:01PM 43.7111 -97.7914 107° East 255 293 23,000  Level Minneapolis Center
02:02PM 43.6892 -97.6986 108° East 256 295 23,000  Level Minneapolis Center
02:03PM 43.6692 -97.6047 106° East 257 296 23,000  Level Minneapolis Center
02:04PM 43.6428 -97.4917 108° East 259 298 23,000  Level Minneapolis Center
02:05PM 43.6233 -97.3964 106° East 259 298 23,000  Level Minneapolis Center
02:06PM 43.6078 -97.3014 103° East 256 295 23,000  Level Minneapolis Center
02:08PM 43.6054 -97.1982 110° East  Level Estimated
02:09PM 43.5736 -97.1133 110° East 255 293 23,000  Level Minneapolis Center
02:10PM 43.5539 -96.9994 103° East 256 295 23,000  Level Minneapolis Center
02:11PM 43.5372 -96.9050 104° East 256 295 23,000  Level Minneapolis Center
02:12PM 43.5181 -96.8111 106° East 256 295 23,000  Level Minneapolis Center
02:13PM 43.4997 -96.7175 105° East 255 293 23,000  Level Minneapolis Center
02:14PM 43.4811 -96.6242 105° East 255 293 23,000  Level Minneapolis Center
02:15PM 43.4606 -96.5122 104° East 254 292 23,000  Level Minneapolis Center
02:16PM 43.4556 -96.4194 94° East 248 285 23,000  Level Minneapolis Center
02:17PM 43.4569 -96.3236 89° East 251 289 23,000  Level Minneapolis Center
02:18PM 43.4544 -96.2294 92° East 250 288 23,000  Level Minneapolis Center
02:19PM 43.4539 -96.1333 90° East 252 290 23,000  Level Minneapolis Center
02:20PM 43.4519 -96.0361 92° East 254 292 23,000  Level Minneapolis Center
02:21PM 43.4508 -95.9200 91° East 255 293 23,000  Level Minneapolis Center
02:23PM 43.4467 -95.7278 92° East 252 290 23,000  Level Minneapolis Center
02:24PM 43.4444 -95.6303 92° East 255 293 23,000  Level Minneapolis Center
02:25PM 43.4422 -95.5344 92° East 254 292 23,000  Level Minneapolis Center
02:26PM 43.4392 -95.4178 92° East 254 292 23,000  Level Minneapolis Center
02:27PM 43.4364 -95.3203 92° East 256 295 23,000  Level Minneapolis Center
02:28PM 43.4344 -95.2231 92° East 256 295 23,000  Level Minneapolis Center
02:29PM 43.4314 -95.1239 92° East 260 299 23,000  Level Minneapolis Center
02:30PM 43.4292 -95.0281 92° East 255 293 23,000  Level Minneapolis Center
02:31PM 43.4267 -94.9308 92° East 256 295 23,000  Level Minneapolis Center
02:32PM 43.4236 -94.8136 92° East 256 295 23,000  Level Minneapolis Center
02:33PM 43.4197 -94.7172 93° East 255 293 23,000  Level Minneapolis Center
02:34PM 43.4169 -94.6192 92° East 257 296 23,000  Level Minneapolis Center
02:35PM 43.4142 -94.5217 92° East 257 296 23,000  Level Minneapolis Center
02:36PM 43.4108 -94.4253 93° East 255 293 23,000  Level Minneapolis Center
02:38PM 43.4069 -94.3089 93° East 254 292 23,000  Level Minneapolis Center
02:39PM 43.4036 -94.2206 93° East 254 292 23,000  Level Minneapolis Center
02:40PM 43.4008 -94.1247 92° East 254 292 23,000  Level Minneapolis Center
02:41PM 43.3969 -94.0283 93° East 254 292 23,000  Level Minneapolis Center
02:42PM 43.3928 -93.9122 93° East 255 293 23,000  Level Minneapolis Center
02:43PM 43.3889 -93.8172 93° East 253 291 23,000  Level Minneapolis Center
02:44PM 43.3856 -93.7206 93° East 254 292 23,000  Level Minneapolis Center
02:45PM 43.3825 -93.6261 93° East 252 290 23,000  Level Minneapolis Center
02:46PM 43.3781 -93.5303 94° East 252 290 23,000  Level Minneapolis Center
02:47PM 43.3742 -93.4175 93° East 250 288 23,000  Level Minneapolis Center
02:48PM 43.3686 -93.3233 95° East 250 288 23,000  Level Minneapolis Center
02:49PM 43.3653 -93.2278 93° East 251 289 23,000  Level Minneapolis Center
02:50PM 43.3614 -93.1322 93° East 252 290 23,000  Level Minneapolis Center
02:51PM 43.3569 -93.0372 94° East 251 289 23,000  Level Minneapolis Center
02:52PM 43.3522 -92.9222 93° East 253 291 23,000  Level Minneapolis Center
02:53PM 43.3475 -92.8272 94° East 252 290 23,000  Level Minneapolis Center
02:54PM 43.3431 -92.7325 94° East 250 288 23,000  Level Minneapolis Center
02:55PM 43.3375 -92.6386 95° East 249 287 23,000  Level Minneapolis Center
02:56PM 43.3339 -92.5447 93° East 248 285 23,000  Level Minneapolis Center
02:57PM 43.3283 -92.4344 94° East 245 282 23,000  Level Minneapolis Center
02:58PM 43.3236 -92.3417 94° East 244 281 23,000  Level Minneapolis Center
02:59PM 43.3197 -92.2497 93° East 244 281 23,000  Level Minneapolis Center
03:00PM 43.3147 -92.1578 94° East 243 280 23,000  Level Minneapolis Center
03:01PM 43.3094 -92.0642 94° East 247 284 23,000  Level Minneapolis Center
03:02PM 43.3039 -91.9525 94° East 246 283 23,000  Level Minneapolis Center
03:03PM 43.2992 -91.8583 94° East 248 285 23,000  Level Minneapolis Center
03:05PM 43.2939 -91.7664 94° East 245 282 23,000  Level Minneapolis Center
03:06PM 43.2875 -91.6539 94° East 247 284 23,000  Level Minneapolis Center
03:07PM 43.2858 -91.5600 91° East 247 284 23,000  Level Minneapolis Center
03:08PM 43.2825 -91.4483 92° East 246 283 23,000  Level Minneapolis Center
03:09PM 43.2786 -91.3553 93° East 246 283 23,000  Level Minneapolis Center
03:10PM 43.2753 -91.2825 94° East 247 284 23,000  Level Chicago Center
03:11PM 43.2717 -91.1906 93° East 244 281 23,000  Level Chicago Center
03:12PM 43.2675 -91.0964 93° East 247 284 23,000  Level Chicago Center
03:13PM 43.2636 -91.0025 93° East 247 284 23,000  Level Chicago Center
03:14PM 43.2583 -90.8900 94° East 248 285 23,000  Level Chicago Center
03:15PM 43.2542 -90.7947 93° East 251 289 23,000  Level Chicago Center
03:16PM 43.2494 -90.7000 94° East 252 290 23,000  Level Chicago Center
03:17PM 43.2450 -90.6056 94° East 251 289 23,000  Level Chicago Center
03:18PM 43.2419 -90.5114 93° East 249 287 23,000 -540 Level Chicago Center
03:19PM 43.2356 -90.3914 94° East 267 307 21,900 -960 Descending Chicago Center
03:20PM 43.2317 -90.2856 93° East 278 320 21,100 -900 Descending Chicago Center
03:21PM 43.2247 -90.1672 95° East 282 325 20,100 -960 Descending Chicago Center
03:22PM 43.2194 -90.0606 94° East 281 323 19,200 -840 Descending Chicago Center
03:23PM 43.2133 -89.9542 94° East 280 322 18,400 -720 Descending Chicago Center
03:24PM 43.2083 -89.8472 94° East 279 321 17,800 -720 Descending Chicago Center
03:25PM 43.2031 -89.7414 94° East 278 320 17,000 -960 Descending Chicago Center
03:26PM 43.1972 -89.6194 94° East 274 315 15,900 -960 Descending Chicago Center
03:27PM 43.1903 -89.5161 95° East 273 314 15,100 -840 Descending Chicago Center
03:28PM 43.1853 -89.4136 94° East 271 312 14,200 -900 Descending Chicago Center
03:29PM 43.1794 -89.3103 94° East 271 312 13,300 -900 Descending Chicago Center
03:30PM 43.1733 -89.2097 95° East 266 306 12,400 -1,020 Descending Chicago Center
03:31PM 43.1678 -89.1008 94° East 249 287 11,300 -1,380 Descending Chicago Center
03:32PM 43.1622 -89.0122 95° East 237 273 9,600 -1,800 Descending Chicago Center
03:33PM 43.1575 -88.9292 94° East 223 257 7,700 -1,620 Descending Chicago Center
03:34PM 43.1525 -88.8539 95° East 210 242 6,300 -1,260 Descending Chicago Center
03:35PM 43.1486 -88.7789 94° East 201 231 5,100 -900 Descending Chicago Center
03:36PM 43.1417 -88.6758 95° East 221 254 4,500 -780 Descending Chicago Center
03:38PM 43.1353 -88.5967 96° East 219 252 3,600 -900 Descending Chicago Center
03:39PM 43.1147 -88.5328 114° Southeast 196 226 2,700 -480 Descending Chicago Center
03:40PM 43.0850 -88.4875 132° Southeast 172 198 2,700  Level Chicago Center
03:41PM 43.0717 -88.4300 108° East 164 189 2,700 -60 Level Chicago Center
03:42PM 43.0608 -88.3625 102° East 160 184 2,600 -480 Descending Chicago Center
03:43PM 43.0539 -88.3153 101° East 142 163 1,800 -600 Descending Chicago Center
03:44PM 43.0461 -88.2656 102° East 131 151 1,400 -420 Descending Chicago Center
03:46PM 43.0333 -88.2333 160° South  Level FlightAware Approximate